sensor_id;sensor_type;location;lat;lon;timestamp;pressure;altitude;pressure_sealevel;temperature;humidity
60244;BME280;46106;51.468;5.814;2022-09-24T00:01:34;100995.78;;;12.98;100.00
60244;BME280;46106;51.468;5.814;2022-09-24T00:04:05;100998.66;;;12.96;100.00
60244;BME280;46106;51.468;5.814;2022-09-24T00:06:42;100997.53;;;12.99;100.00
60244;BME280;46106;51.468;5.814;2022-09-24T00:09:11;101001.28;;;12.98;100.00
60244;BME280;46106;51.468;5.814;2022-09-24T00:11:48;100992.06;;;12.99;100.00
60244;BME280;46106;51.468;5.814;2022-09-24T00:14:23;100995.31;;;12.93;100.00
60244;BME280;46106;51.468;5.814;2022-09-24T00:16:53;100988.53;;;12.97;100.00
60244;BME280;46106;51.468;5.814;2022-09-24T00:19:35;100991.09;;;12.88;100.00
60244;BME280;46106;51.468;5.814;2022-09-24T00:22:04;100976.47;;;12.88;100.00
60244;BME280;46106;51.468;5.814;2022-09-24T00:24:37;100980.09;;;12.88;100.00
60244;BME280;46106;51.468;5.814;2022-09-24T00:27:21;100987.47;;;12.88;100.00
60244;BME280;46106;51.468;5.814;2022-09-24T00:30:07;100977.47;;;12.87;100.00
60244;BME280;46106;51.468;5.814;2022-09-24T00:32:38;100983.19;;;12.95;100.00
60244;BME280;46106;51.468;5.814;2022-09-24T00:35:07;100975.16;;;12.82;100.00
60244;BME280;46106;51.468;5.814;2022-09-24T00:37:35;100964.28;;;12.81;100.00
60244;BME280;46106;51.468;5.814;2022-09-24T00:40:14;100974.00;;;12.85;100.00
60244;BME280;46106;51.468;5.814;2022-09-24T00:42:40;100976.28;;;12.80;100.00
60244;BME280;46106;51.468;5.814;2022-09-24T00:45:09;100972.06;;;12.76;100.00
60244;BME280;46106;51.468;5.814;2022-09-24T00:47:45;100977.56;;;12.76;100.00
60244;BME280;46106;51.468;5.814;2022-09-24T00:50:20;100976.16;;;12.81;100.00
60244;BME280;46106;51.468;5.814;2022-09-24T00:53:12;100969.66;;;12.82;100.00
60244;BME280;46106;51.468;5.814;2022-09-24T00:55:51;100964.16;;;12.82;100.00
60244;BME280;46106;51.468;5.814;2022-09-24T00:58:29;100959.19;;;12.76;100.00
60244;BME280;46106;51.468;5.814;2022-09-24T01:01:04;100962.53;;;12.80;100.00
60244;BME280;46106;51.468;5.814;2022-09-24T01:03:40;100949.94;;;12.77;100.00
60244;BME280;46106;51.468;5.814;2022-09-24T01:06:10;100954.28;;;12.80;100.00
60244;BME280;46106;51.468;5.814;2022-09-24T01:08:45;100953.56;;;12.78;100.00
60244;BME280;46106;51.468;5.814;2022-09-24T01:14:37;100944.78;;;12.84;100.00
60244;BME280;46106;51.468;5.814;2022-09-24T01:23:19;100931.97;;;12.73;100.00
60244;BME280;46106;51.468;5.814;2022-09-24T01:32:27;100922.13;;;12.71;100.00
60244;BME280;46106;51.468;5.814;2022-09-24T01:35:15;100925.75;;;12.71;100.00
60244;BME280;46106;51.468;5.814;2022-09-24T01:37:58;100914.44;;;12.64;100.00
60244;BME280;46106;51.468;5.814;2022-09-24T01:40:42;100924.00;;;12.70;100.00
60244;BME280;46106;51.468;5.814;2022-09-24T01:43:23;100909.41;;;12.69;100.00
60244;BME280;46106;51.468;5.814;2022-09-24T01:45:50;100888.41;;;12.68;100.00
60244;BME280;46106;51.468;5.814;2022-09-24T01:48:24;100895.94;;;12.66;100.00
60244;BME280;46106;51.468;5.814;2022-09-24T01:53:44;100895.47;;;12.61;100.00
60244;BME280;46106;51.468;5.814;2022-09-24T01:56:17;100905.75;;;12.69;100.00
60244;BME280;46106;51.468;5.814;2022-09-24T01:58:53;100896.06;;;12.65;100.00
60244;BME280;46106;51.468;5.814;2022-09-24T02:01:30;100893.31;;;12.65;100.00
60244;BME280;46106;51.468;5.814;2022-09-24T02:04:06;100897.06;;;12.64;100.00
60244;BME280;46106;51.468;5.814;2022-09-24T02:06:52;100905.31;;;12.64;100.00
60244;BME280;46106;51.468;5.814;2022-09-24T02:09:34;100893.19;;;12.66;100.00
60244;BME280;46106;51.468;5.814;2022-09-24T02:12:20;100887.38;;;12.60;100.00
60244;BME280;46106;51.468;5.814;2022-09-24T02:17:56;100888.94;;;12.62;100.00
60244;BME280;46106;51.468;5.814;2022-09-24T02:20:35;100881.75;;;12.61;100.00
60244;BME280;46106;51.468;5.814;2022-09-24T02:23:07;100892.00;;;12.59;100.00
60244;BME280;46106;51.468;5.814;2022-09-24T02:25:54;100890.69;;;12.63;100.00
60244;BME280;46106;51.468;5.814;2022-09-24T02:28:30;100884.75;;;12.58;100.00
60244;BME280;46106;51.468;5.814;2022-09-24T02:31:13;100876.97;;;12.63;100.00
60244;BME280;46106;51.468;5.814;2022-09-24T02:33:48;100883.00;;;12.57;100.00
60244;BME280;46106;51.468;5.814;2022-09-24T02:36:37;100875.78;;;12.56;100.00
60244;BME280;46106;51.468;5.814;2022-09-24T02:39:06;100883.00;;;12.57;100.00
60244;BME280;46106;51.468;5.814;2022-09-24T02:41:42;100867.06;;;12.51;100.00
60244;BME280;46106;51.468;5.814;2022-09-24T02:44:17;100881.00;;;12.59;100.00
60244;BME280;46106;51.468;5.814;2022-09-24T02:46:46;100854.88;;;12.44;100.00
60244;BME280;46106;51.468;5.814;2022-09-24T02:49:15;100842.09;;;12.33;100.00
60244;BME280;46106;51.468;5.814;2022-09-24T02:51:47;100858.47;;;12.44;100.00
60244;BME280;46106;51.468;5.814;2022-09-24T02:54:18;100857.88;;;12.41;100.00
60244;BME280;46106;51.468;5.814;2022-09-24T02:56:47;100878.47;;;12.46;100.00
60244;BME280;46106;51.468;5.814;2022-09-24T02:59:14;100873.09;;;12.45;100.00
60244;BME280;46106;51.468;5.814;2022-09-24T03:01:45;100878.91;;;12.52;100.00
60244;BME280;46106;51.468;5.814;2022-09-24T03:04:17;100873.44;;;12.52;100.00
60244;BME280;46106;51.468;5.814;2022-09-24T03:06:46;100874.56;;;12.49;100.00
60244;BME280;46106;51.468;5.814;2022-09-24T03:09:18;100877.16;;;12.50;100.00
60244;BME280;46106;51.468;5.814;2022-09-24T03:11:45;100869.94;;;12.49;100.00
60244;BME280;46106;51.468;5.814;2022-09-24T03:14:24;100863.56;;;12.49;100.00
60244;BME280;46106;51.468;5.814;2022-09-24T03:16:50;100859.81;;;12.50;100.00
60244;BME280;46106;51.468;5.814;2022-09-24T03:19:17;100841.72;;;12.47;100.00
60244;BME280;46106;51.468;5.814;2022-09-24T03:21:54;100861.91;;;12.58;100.00
60244;BME280;46106;51.468;5.814;2022-09-24T03:24:21;100858.41;;;12.56;100.00
60244;BME280;46106;51.468;5.814;2022-09-24T03:26:49;100853.94;;;12.55;100.00
60244;BME280;46106;51.468;5.814;2022-09-24T03:29:19;100843.34;;;12.50;100.00
60244;BME280;46106;51.468;5.814;2022-09-24T03:32:13;100852.31;;;12.52;100.00
60244;BME280;46106;51.468;5.814;2022-09-24T03:34:41;100849.44;;;12.54;100.00
60244;BME280;46106;51.468;5.814;2022-09-24T03:37:12;100851.19;;;12.55;100.00
60244;BME280;46106;51.468;5.814;2022-09-24T03:39:56;100845.22;;;12.49;100.00
60244;BME280;46106;51.468;5.814;2022-09-24T03:42:22;100857.81;;;12.52;100.00
60244;BME280;46106;51.468;5.814;2022-09-24T03:44:48;100853.03;;;12.54;100.00
60244;BME280;46106;51.468;5.814;2022-09-24T03:47:16;100846.75;;;12.42;100.00
60244;BME280;46106;51.468;5.814;2022-09-24T03:49:45;100849.97;;;12.47;100.00
60244;BME280;46106;51.468;5.814;2022-09-24T03:52:14;100852.19;;;12.54;100.00
60244;BME280;46106;51.468;5.814;2022-09-24T03:54:50;100845.56;;;12.56;100.00
60244;BME280;46106;51.468;5.814;2022-09-24T03:57:24;100846.28;;;12.58;100.00
60244;BME280;46106;51.468;5.814;2022-09-24T03:59:52;100855.41;;;12.59;100.00
60244;BME280;46106;51.468;5.814;2022-09-24T04:02:18;100856.28;;;12.59;100.00
60244;BME280;46106;51.468;5.814;2022-09-24T04:04:49;100842.06;;;12.54;100.00
60244;BME280;46106;51.468;5.814;2022-09-24T04:07:25;100859.75;;;12.61;100.00
60244;BME280;46106;51.468;5.814;2022-09-24T04:10:03;100843.09;;;12.53;100.00
60244;BME280;46106;51.468;5.814;2022-09-24T04:12:41;100848.91;;;12.60;100.00
60244;BME280;46106;51.468;5.814;2022-09-24T04:15:09;100856.13;;;12.61;100.00
60244;BME280;46106;51.468;5.814;2022-09-24T04:17:36;100846.56;;;12.55;100.00
60244;BME280;46106;51.468;5.814;2022-09-24T04:20:18;100841.78;;;12.57;100.00
60244;BME280;46106;51.468;5.814;2022-09-24T04:22:49;100836.44;;;12.56;100.00
60244;BME280;46106;51.468;5.814;2022-09-24T04:25:29;100838.78;;;12.60;100.00
60244;BME280;46106;51.468;5.814;2022-09-24T04:28:06;100831.56;;;12.59;100.00
60244;BME280;46106;51.468;5.814;2022-09-24T04:30:34;100831.84;;;12.56;100.00
60244;BME280;46106;51.468;5.814;2022-09-24T04:33:05;100828.94;;;12.58;100.00
60244;BME280;46106;51.468;5.814;2022-09-24T04:35:46;100819.09;;;12.55;100.00
60244;BME280;46106;51.468;5.814;2022-09-24T04:38:21;100823.47;;;12.58;100.00
60244;BME280;46106;51.468;5.814;2022-09-24T04:40:48;100826.22;;;12.58;100.00
60244;BME280;46106;51.468;5.814;2022-09-24T04:43:20;100823.47;;;12.58;100.00
60244;BME280;46106;51.468;5.814;2022-09-24T04:45:51;100819.81;;;12.57;100.00
60244;BME280;46106;51.468;5.814;2022-09-24T04:48:21;100824.44;;;12.57;100.00
60244;BME280;46106;51.468;5.814;2022-09-24T04:50:48;100801.63;;;12.35;100.00
60244;BME280;46106;51.468;5.814;2022-09-24T04:53:26;100824.25;;;12.48;100.00
60244;BME280;46106;51.468;5.814;2022-09-24T04:55:53;100815.56;;;12.43;100.00
60244;BME280;46106;51.468;5.814;2022-09-24T04:58:32;100818.38;;;12.53;100.00
60244;BME280;46106;51.468;5.814;2022-09-24T05:01:02;100827.00;;;12.48;100.00
60244;BME280;46106;51.468;5.814;2022-09-24T05:03:28;100826.41;;;12.45;100.00
60244;BME280;46106;51.468;5.814;2022-09-24T05:05:56;100828.25;;;12.44;100.00
60244;BME280;46106;51.468;5.814;2022-09-24T05:08:22;100831.91;;;12.45;100.00
60244;BME280;46106;51.468;5.814;2022-09-24T05:10:54;100828.13;;;12.46;100.00
60244;BME280;46106;51.468;5.814;2022-09-24T05:13:25;100840.41;;;12.42;100.00
60244;BME280;46106;51.468;5.814;2022-09-24T05:15:54;100836.38;;;12.46;100.00
60244;BME280;46106;51.468;5.814;2022-09-24T05:18:26;100825.94;;;12.40;100.00
60244;BME280;46106;51.468;5.814;2022-09-24T05:20:56;100834.78;;;12.43;100.00
60244;BME280;46106;51.468;5.814;2022-09-24T05:23:28;100834.78;;;12.43;100.00
60244;BME280;46106;51.468;5.814;2022-09-24T05:25:54;100837.91;;;12.39;100.00
60244;BME280;46106;51.468;5.814;2022-09-24T05:28:51;100843.28;;;12.40;100.00
60244;BME280;46106;51.468;5.814;2022-09-24T05:31:19;100846.88;;;12.41;100.00
60244;BME280;46106;51.468;5.814;2022-09-24T05:33:46;100848.91;;;12.39;100.00
60244;BME280;46106;51.468;5.814;2022-09-24T05:36:26;100842.56;;;12.38;100.00
60244;BME280;46106;51.468;5.814;2022-09-24T05:38:53;100839.53;;;12.41;100.00
60244;BME280;46106;51.468;5.814;2022-09-24T05:41:19;100844.16;;;12.41;100.00
60244;BME280;46106;51.468;5.814;2022-09-24T05:43:50;100843.69;;;12.36;100.00
60244;BME280;46106;51.468;5.814;2022-09-24T05:46:21;100840.53;;;12.40;100.00
60244;BME280;46106;51.468;5.814;2022-09-24T05:48:48;100847.41;;;12.35;100.00
60244;BME280;46106;51.468;5.814;2022-09-24T05:51:17;100842.09;;;12.33;100.00
60244;BME280;46106;51.468;5.814;2022-09-24T05:53:45;100842.69;;;12.37;100.00
60244;BME280;46106;51.468;5.814;2022-09-24T05:56:12;100829.22;;;12.34;100.00
60244;BME280;46106;51.468;5.814;2022-09-24T05:58:49;100846.16;;;12.39;100.00
60244;BME280;46106;51.468;5.814;2022-09-24T06:01:16;100849.63;;;12.41;100.00
60244;BME280;46106;51.468;5.814;2022-09-24T06:03:45;100848.63;;;12.42;100.00
60244;BME280;46106;51.468;5.814;2022-09-24T06:06:16;100846.41;;;12.36;100.00
60244;BME280;46106;51.468;5.814;2022-09-24T06:08:48;100848.91;;;12.39;100.00
60244;BME280;46106;51.468;5.814;2022-09-24T06:11:26;100845.91;;;12.42;100.00
60244;BME280;46106;51.468;5.814;2022-09-24T06:14:05;100851.97;;;12.45;100.00
60244;BME280;46106;51.468;5.814;2022-09-24T06:16:32;100834.91;;;12.42;100.00
60244;BME280;46106;51.468;5.814;2022-09-24T06:19:00;100859.56;;;12.53;100.00
60244;BME280;46106;51.468;5.814;2022-09-24T06:21:30;100855.91;;;12.53;100.00
60244;BME280;46106;51.468;5.814;2022-09-24T06:24:04;100841.72;;;12.47;100.00
60244;BME280;46106;51.468;5.814;2022-09-24T06:26:40;100856.94;;;12.52;100.00
60244;BME280;46106;51.468;5.814;2022-09-24T06:29:10;100859.69;;;12.52;100.00
60244;BME280;46106;51.468;5.814;2022-09-24T06:31:49;100855.25;;;12.60;100.00
60244;BME280;46106;51.468;5.814;2022-09-24T06:34:20;100855.41;;;12.59;100.00
60244;BME280;46106;51.468;5.814;2022-09-24T06:36:52;100847.09;;;12.49;100.00
60244;BME280;46106;51.468;5.814;2022-09-24T06:39:28;100862.63;;;12.60;100.00
60244;BME280;46106;51.468;5.814;2022-09-24T06:41:58;100857.00;;;12.61;100.00
60244;BME280;46106;51.468;5.814;2022-09-24T06:44:27;100862.09;;;12.66;100.00
60244;BME280;46106;51.468;5.814;2022-09-24T06:46:53;100866.19;;;12.72;100.00
60244;BME280;46106;51.468;5.814;2022-09-24T06:49:25;100862.56;;;12.71;100.00
60244;BME280;46106;51.468;5.814;2022-09-24T06:51:54;100863.44;;;12.72;100.00
60244;BME280;46106;51.468;5.814;2022-09-24T06:54:35;100876.50;;;12.79;100.00
60244;BME280;46106;51.468;5.814;2022-09-24T06:57:06;100869.53;;;12.75;100.00
60244;BME280;46106;51.468;5.814;2022-09-24T06:59:44;100879.97;;;12.81;100.00
60244;BME280;46106;51.468;5.814;2022-09-24T07:02:16;100879.84;;;12.83;100.00
60244;BME280;46106;51.468;5.814;2022-09-24T07:04:44;100881.09;;;12.79;100.00
60244;BME280;46106;51.468;5.814;2022-09-24T07:07:11;100879.38;;;12.78;100.00
60244;BME280;46106;51.468;5.814;2022-09-24T07:10:06;100881.09;;;12.79;100.00
60244;BME280;46106;51.468;5.814;2022-09-24T07:12:43;100877.03;;;12.73;100.00
60244;BME280;46106;51.468;5.814;2022-09-24T07:15:13;100885.16;;;12.75;100.00
60244;BME280;46106;51.468;5.814;2022-09-24T07:17:42;100881.41;;;12.76;100.00
60244;BME280;46106;51.468;5.814;2022-09-24T07:20:09;100887.75;;;12.76;100.00
60244;BME280;46106;51.468;5.814;2022-09-24T07:22:39;100895.59;;;12.81;100.00
60244;BME280;46106;51.468;5.814;2022-09-24T07:25:15;100884.28;;;12.74;100.00
60244;BME280;46106;51.468;5.814;2022-09-24T07:27:51;100887.94;;;12.84;100.00
60244;BME280;46106;51.468;5.814;2022-09-24T07:30:17;100891.56;;;12.85;100.00
60244;BME280;46106;51.468;5.814;2022-09-24T07:32:54;100893.44;;;12.84;100.00
60244;BME280;46106;51.468;5.814;2022-09-24T07:35:26;100895.94;;;12.87;100.00
60244;BME280;46106;51.468;5.814;2022-09-24T07:38:05;100887.56;;;12.89;100.00
60244;BME280;46106;51.468;5.814;2022-09-24T07:40:33;100896.06;;;12.86;100.00
60244;BME280;46106;51.468;5.814;2022-09-24T07:43:02;100895.78;;;12.89;100.00
60244;BME280;46106;51.468;5.814;2022-09-24T07:45:40;100895.03;;;12.87;100.00
60244;BME280;46106;51.468;5.814;2022-09-24T07:48:10;100896.53;;;12.91;100.00
60244;BME280;46106;51.468;5.814;2022-09-24T07:50:39;100888.72;;;12.96;100.00
60244;BME280;46106;51.468;5.814;2022-09-24T07:53:11;100904.09;;;12.99;100.00
60244;BME280;46106;51.468;5.814;2022-09-24T07:55:40;100903.47;;;12.95;100.00
60244;BME280;46106;51.468;5.814;2022-09-24T07:58:11;100906.41;;;13.03;100.00
60244;BME280;46106;51.468;5.814;2022-09-24T08:00:38;100908.03;;;13.06;100.00
60244;BME280;46106;51.468;5.814;2022-09-24T08:03:19;100901.53;;;13.07;100.00
60244;BME280;46106;51.468;5.814;2022-09-24T08:05:47;100904.69;;;13.02;100.00
60244;BME280;46106;51.468;5.814;2022-09-24T08:08:16;100912.53;;;13.07;100.00
60244;BME280;46106;51.468;5.814;2022-09-24T08:10:46;100901.81;;;13.04;100.00
60244;BME280;46106;51.468;5.814;2022-09-24T08:13:13;100913.41;;;13.08;100.00
60244;BME280;46106;51.468;5.814;2022-09-24T08:15:42;100913.13;;;13.11;100.00
60244;BME280;46106;51.468;5.814;2022-09-24T08:18:15;100914.72;;;13.13;100.00
60244;BME280;46106;51.468;5.814;2022-09-24T08:20:46;100912.41;;;13.09;100.00
60244;BME280;46106;51.468;5.814;2022-09-24T08:23:24;100917.00;;;13.08;100.00
60244;BME280;46106;51.468;5.814;2022-09-24T08:25:56;100922.22;;;13.11;100.00
60244;BME280;46106;51.468;5.814;2022-09-24T08:28:28;100921.81;;;13.16;100.00
60244;BME280;46106;51.468;5.814;2022-09-24T08:31:00;100918.63;;;13.11;100.00
60244;BME280;46106;51.468;5.814;2022-09-24T08:33:37;100923.25;;;13.10;100.00
60244;BME280;46106;51.468;5.814;2022-09-24T08:36:08;100923.72;;;13.15;100.00
60244;BME280;46106;51.468;5.814;2022-09-24T08:38:46;100923.75;;;13.25;100.00
60244;BME280;46106;51.468;5.814;2022-09-24T08:44:07;100932.00;;;13.25;100.00
60244;BME280;46106;51.468;5.814;2022-09-24T08:46:47;100929.72;;;13.30;100.00
60244;BME280;46106;51.468;5.814;2022-09-24T08:49:39;100937.47;;;13.36;100.00
60244;BME280;46106;51.468;5.814;2022-09-24T08:52:34;100936.94;;;13.31;100.00
60244;BME280;46106;51.468;5.814;2022-09-24T08:55:13;100936.09;;;13.31;100.00
60244;BME280;46106;51.468;5.814;2022-09-24T08:58:32;100936.94;;;13.31;100.00
60244;BME280;46106;51.468;5.814;2022-09-24T09:00:55;100945.84;;;13.35;100.00
60244;BME280;46106;51.468;5.814;2022-09-24T09:03:42;100948.91;;;13.41;100.00
60244;BME280;46106;51.468;5.814;2022-09-24T09:09:10;100941.94;;;13.37;100.00
60244;BME280;46106;51.468;5.814;2022-09-24T09:11:46;100953.25;;;13.44;100.00
60244;BME280;46106;51.468;5.814;2022-09-24T09:14:26;100942.44;;;13.52;100.00
60244;BME280;46106;51.468;5.814;2022-09-24T09:17:38;100954.91;;;13.56;100.00
60244;BME280;46106;51.468;5.814;2022-09-24T09:20:21;100951.00;;;13.59;100.00
60244;BME280;46106;51.468;5.814;2022-09-24T09:22:59;100947.09;;;13.62;100.00
60244;BME280;46106;51.468;5.814;2022-09-24T09:25:29;100950.44;;;13.65;100.00
60244;BME280;46106;51.468;5.814;2022-09-24T09:28:13;100946.84;;;13.65;100.00
60244;BME280;46106;51.468;5.814;2022-09-24T09:37:28;100952.53;;;13.83;100.00
60244;BME280;46106;51.468;5.814;2022-09-24T09:42:59;100953.00;;;13.88;100.00
60244;BME280;46106;51.468;5.814;2022-09-24T09:48:53;100954.44;;;13.92;100.00
60244;BME280;46106;51.468;5.814;2022-09-24T09:51:41;100944.63;;;13.99;100.00
60244;BME280;46106;51.468;5.814;2022-09-24T09:54:20;100944.78;;;14.07;100.00
60244;BME280;46106;51.468;5.814;2022-09-24T09:56:49;100947.66;;;14.06;100.00
60244;BME280;46106;51.468;5.814;2022-09-24T09:59:21;100945.94;;;14.14;100.00
60244;BME280;46106;51.468;5.814;2022-09-24T10:01:49;100937.50;;;14.06;100.00
60244;BME280;46106;51.468;5.814;2022-09-24T10:07:16;100943.75;;;14.18;100.00
60244;BME280;46106;51.468;5.814;2022-09-24T10:09:58;100947.97;;;14.22;100.00
60244;BME280;46106;51.468;5.814;2022-09-24T10:12:28;100949.75;;;14.23;100.00
60244;BME280;46106;51.468;5.814;2022-09-24T10:17:52;100949.56;;;14.25;100.00
60244;BME280;46106;51.468;5.814;2022-09-24T10:20:32;100953.50;;;14.22;100.00
60244;BME280;46106;51.468;5.814;2022-09-24T10:23:06;100956.38;;;14.21;100.00
60244;BME280;46106;51.468;5.814;2022-09-24T10:25:54;100952.63;;;14.41;100.00
60244;BME280;46106;51.468;5.814;2022-09-24T10:28:44;100947.28;;;14.40;100.00
60244;BME280;46106;51.468;5.814;2022-09-24T10:31:35;100942.50;;;14.42;100.00
60244;BME280;46106;51.468;5.814;2022-09-24T10:34:04;100932.75;;;14.38;100.00
60244;BME280;46106;51.468;5.814;2022-09-24T10:36:58;100944.25;;;14.72;100.00
60244;BME280;46106;51.468;5.814;2022-09-24T10:39:33;100953.53;;;14.91;100.00
60244;BME280;46106;51.468;5.814;2022-09-24T10:42:26;100939.28;;;14.85;100.00
60244;BME280;46106;51.468;5.814;2022-09-24T10:44:56;100948.47;;;14.76;100.00
60244;BME280;46106;51.468;5.814;2022-09-24T10:47:39;100948.16;;;14.89;100.00
60244;BME280;46106;51.468;5.814;2022-09-24T10:56:52;100954.22;;;15.02;100.00
60244;BME280;46106;51.468;5.814;2022-09-24T10:59:41;100948.09;;;15.18;100.00
60244;BME280;46106;51.468;5.814;2022-09-24T11:04:55;100958.09;;;15.19;100.00
60244;BME280;46106;51.468;5.814;2022-09-24T11:07:27;100961.00;;;15.18;100.00
60244;BME280;46106;51.468;5.814;2022-09-24T11:16:14;100965.53;;;15.56;100.00
60244;BME280;46106;51.468;5.814;2022-09-24T11:18:56;100959.13;;;15.56;100.00
60244;BME280;46106;51.468;5.814;2022-09-24T11:33:06;100967.88;;;15.51;100.00
60244;BME280;46106;51.468;5.814;2022-09-24T11:52:24;100964.91;;;16.00;100.00
60244;BME280;46106;51.468;5.814;2022-09-24T11:55:20;100953.34;;;15.87;100.00
60244;BME280;46106;51.468;5.814;2022-09-24T11:57:52;100959.91;;;15.86;100.00
60244;BME280;46106;51.468;5.814;2022-09-24T12:00:32;100958.56;;;15.90;100.00
60244;BME280;46106;51.468;5.814;2022-09-24T12:03:32;100942.22;;;15.78;100.00
60244;BME280;46106;51.468;5.814;2022-09-24T12:06:12;100955.25;;;15.86;100.00
60244;BME280;46106;51.468;5.814;2022-09-24T12:09:00;100944.00;;;15.97;100.00
60244;BME280;46106;51.468;5.814;2022-09-24T12:11:41;100950.91;;;15.74;100.00
60244;BME280;46106;51.468;5.814;2022-09-24T12:14:24;100957.63;;;15.81;100.00
60244;BME280;46106;51.468;5.814;2022-09-24T12:16:55;100954.06;;;15.89;100.00
60244;BME280;46106;51.468;5.814;2022-09-24T12:19:40;100941.09;;;15.99;100.00
60244;BME280;46106;51.468;5.814;2022-09-24T12:22:34;100948.09;;;15.93;100.00
60244;BME280;46106;51.468;5.814;2022-09-24T12:25:10;100940.84;;;15.92;100.00
60244;BME280;46106;51.468;5.814;2022-09-24T12:27:53;100946.22;;;15.94;100.00
60244;BME280;46106;51.468;5.814;2022-09-24T12:30:38;100938.72;;;16.04;100.00
60244;BME280;46106;51.468;5.814;2022-09-24T12:33:47;100947.63;;;15.98;100.00
60244;BME280;46106;51.468;5.814;2022-09-24T12:36:57;100949.72;;;16.14;100.00
60244;BME280;46106;51.468;5.814;2022-09-24T12:39:31;100943.63;;;16.10;100.00
60244;BME280;46106;51.468;5.814;2022-09-24T12:42:03;100945.81;;;16.07;100.00
60244;BME280;46106;51.468;5.814;2022-09-24T12:44:53;100942.47;;;15.85;100.00
60244;BME280;46106;51.468;5.814;2022-09-24T12:47:38;100942.41;;;15.95;100.00
60244;BME280;46106;51.468;5.814;2022-09-24T12:50:25;100947.53;;;15.90;100.00
60244;BME280;46106;51.468;5.814;2022-09-24T12:53:19;100955.84;;;15.80;100.00
60244;BME280;46106;51.468;5.814;2022-09-24T12:55:57;100955.84;;;16.08;100.00
60244;BME280;46106;51.468;5.814;2022-09-24T12:58:34;100946.16;;;16.04;100.00
60244;BME280;46106;51.468;5.814;2022-09-24T13:04:27;100953.19;;;16.16;100.00
60244;BME280;46106;51.468;5.814;2022-09-24T13:06:51;100948.59;;;16.25;100.00
60244;BME280;46106;51.468;5.814;2022-09-24T13:14:42;100944.59;;;16.19;100.00
60244;BME280;46106;51.468;5.814;2022-09-24T13:17:16;100949.09;;;16.20;100.00
60244;BME280;46106;51.468;5.814;2022-09-24T13:19:46;100947.16;;;16.03;100.00
60244;BME280;46106;51.468;5.814;2022-09-24T13:22:29;100952.84;;;16.01;100.00
60244;BME280;46106;51.468;5.814;2022-09-24T13:27:42;100943.84;;;15.99;100.00
60244;BME280;46106;51.468;5.814;2022-09-24T13:32:53;100951.44;;;16.15;100.00
60244;BME280;46106;51.468;5.814;2022-09-24T13:35:27;100946.72;;;16.07;100.00
60244;BME280;46106;51.468;5.814;2022-09-24T13:38:21;100943.00;;;15.89;100.00
60244;BME280;46106;51.468;5.814;2022-09-24T13:40:59;100944.50;;;15.83;100.00
60244;BME280;46106;51.468;5.814;2022-09-24T13:43:53;100944.84;;;15.70;100.00
60244;BME280;46106;51.468;5.814;2022-09-24T13:46:21;100949.53;;;15.60;100.00
60244;BME280;46106;51.468;5.814;2022-09-24T13:48:51;100956.13;;;15.39;100.00
60244;BME280;46106;51.468;5.814;2022-09-24T13:51:24;100950.38;;;15.23;100.00
60244;BME280;46106;51.468;5.814;2022-09-24T13:54:41;100950.13;;;15.16;100.00
60244;BME280;46106;51.468;5.814;2022-09-24T13:57:27;100952.81;;;15.36;100.00
60244;BME280;46106;51.468;5.814;2022-09-24T14:03:03;100950.34;;;15.33;100.00
60244;BME280;46106;51.468;5.814;2022-09-24T14:05:34;100954.13;;;15.41;100.00
60244;BME280;46106;51.468;5.814;2022-09-24T14:08:12;100953.97;;;15.43;100.00
60244;BME280;46106;51.468;5.814;2022-09-24T14:10:44;100960.56;;;15.60;100.00
60244;BME280;46106;51.468;5.814;2022-09-24T14:15:51;100962.72;;;15.76;100.00
60244;BME280;46106;51.468;5.814;2022-09-24T14:18:21;100960.38;;;15.81;100.00
60244;BME280;46106;51.468;5.814;2022-09-24T14:20:56;100964.00;;;15.72;100.00
60244;BME280;46106;51.468;5.814;2022-09-24T14:23:42;100964.09;;;15.52;100.00
60244;BME280;46106;51.468;5.814;2022-09-24T14:26:40;100963.53;;;15.49;100.00
60244;BME280;46106;51.468;5.814;2022-09-24T14:29:39;100961.19;;;15.54;100.00
60244;BME280;46106;51.468;5.814;2022-09-24T14:32:21;100965.72;;;15.45;100.00
60244;BME280;46106;51.468;5.814;2022-09-24T14:35:28;100962.88;;;15.65;100.00
60244;BME280;46106;51.468;5.814;2022-09-24T14:38:07;100960.44;;;15.61;100.00
60244;BME280;46106;51.468;5.814;2022-09-24T14:40:49;100961.19;;;15.54;100.00
60244;BME280;46106;51.468;5.814;2022-09-24T14:43:25;100964.41;;;15.39;100.00
60244;BME280;46106;51.468;5.814;2022-09-24T14:46:13;100956.13;;;15.39;100.00
60244;BME280;46106;51.468;5.814;2022-09-24T14:48:43;100959.97;;;15.29;100.00
60244;BME280;46106;51.468;5.814;2022-09-24T14:51:27;100964.00;;;15.34;100.00
60244;BME280;46106;51.468;5.814;2022-09-24T14:54:00;100962.13;;;15.35;100.00
60244;BME280;46106;51.468;5.814;2022-09-24T14:56:30;100966.91;;;15.33;100.00
60244;BME280;46106;51.468;5.814;2022-09-24T14:59:13;100964.16;;;15.33;100.00
60244;BME280;46106;51.468;5.814;2022-09-24T15:01:43;100956.50;;;15.27;100.00
60244;BME280;46106;51.468;5.814;2022-09-24T15:04:22;100960.88;;;15.10;100.00
60244;BME280;46106;51.468;5.814;2022-09-24T15:06:52;100955.34;;;15.10;100.00
60244;BME280;46106;51.468;5.814;2022-09-24T15:09:29;100958.13;;;15.10;100.00
60244;BME280;46106;51.468;5.814;2022-09-24T15:12:08;100953.41;;;15.30;100.00
60244;BME280;46106;51.468;5.814;2022-09-24T15:14:52;100952.69;;;15.28;100.00